Time;durP1;ratioP1;P1;durP2;ratioP2;P2;SDS_P1;SDS_P2;PMS_P1;PMS_P2;Temp;Humidity;BMP_temperature;BMP_pressure;BME280_temperature;BME280_humidity;BME280_pressure;Samples;Min_cycle;Max_cycle;Signal;HPM_P1;HPM_P2
2022/02/09 00:08:07;;;;;;;;;36.75;33.50;;;;;11.57;61.86;102596.47;5101500;27;45251;-65
2022/02/09 00:10:11;;;;;;;;;40.75;33.50;;;;;11.54;62.18;102585.81;5086889;27;45559;-65
2022/02/09 00:17:50;;;;;;;;;32.00;27.50;;;;;11.47;62.36;102569.78;5101466;27;45206;-65
2022/02/09 01:56:23;;;;;;;;;19.50;17.50;;;;;10.76;62.26;102542.59;5100316;27;45381;-65
2022/02/09 01:58:50;;;;;;;;;16.50;14.25;;;;;10.74;62.17;102542.59;5100119;27;45246;-65
2022/02/09 02:01:15;;;;;;;;;19.50;17.00;;;;;10.67;61.79;102535.47;5099421;27;45435;-65
2022/02/09 02:03:40;;;;;;;;;16.75;15.50;;;;;10.65;61.91;102536.41;5100236;27;45313;-65
2022/02/09 02:06:06;;;;;;;;;20.50;19.00;;;;;10.65;62.41;102544.41;5099906;27;45352;-65
2022/02/09 02:08:33;;;;;;;;;20.00;19.00;;;;;10.62;61.88;102545.31;5098313;27;45248;-65
2022/02/09 02:11:26;;;;;;;;;21.50;17.25;;;;;10.63;62.06;102541.75;5111214;27;45655;-65
2022/02/09 02:19:01;;;;;;;;;19.00;18.00;;;;;10.56;62.24;102534.66;5099897;27;45428;-65
2022/02/09 02:21:42;;;;;;;;;17.25;17.25;;;;;10.53;61.83;102532.88;5097439;27;46161;-65
2022/02/09 02:24:39;;;;;;;;;17.75;17.75;;;;;10.50;62.29;102524.88;5097755;27;45432;-65
2022/02/09 02:27:22;;;;;;;;;18.75;18.00;;;;;10.48;62.08;102521.31;5099556;27;45435;-65
2022/02/09 03:17:07;;;;;;;;;23.50;21.00;;;;;10.23;62.52;102445.75;5102703;27;45414;-65
2022/02/09 03:27:21;;;;;;;;;19.25;18.25;;;;;10.25;62.24;102425.28;5102289;27;45239;-65
2022/02/09 03:43:55;;;;;;;;;25.25;20.75;;;;;10.23;61.97;102412.84;5090965;27;45308;-64
2022/02/09 03:56:59;;;;;;;;;23.50;21.00;;;;;10.17;61.63;102398.63;5102005;27;45575;-65
2022/02/09 03:59:27;;;;;;;;;22.00;22.00;;;;;10.19;61.63;102407.53;5101716;27;45656;-65
2022/02/09 04:01:52;;;;;;;;;24.00;20.25;;;;;10.17;61.74;102397.72;5105872;27;45416;-64
2022/02/09 04:04:18;;;;;;;;;22.50;21.75;;;;;10.15;61.75;102394.19;5102007;27;45444;-65
2022/02/09 04:06:45;;;;;;;;;25.75;22.25;;;;;10.15;61.44;102395.06;5101647;27;45398;-65
2022/02/09 04:09:15;;;;;;;;;22.75;18.75;;;;;10.13;61.75;102402.19;5100311;27;47449;-65
2022/02/09 04:16:46;;;;;;;;;27.00;21.00;;;;;10.05;61.21;102400.47;5101202;27;46096;-65
2022/02/09 04:19:25;;;;;;;;;23.50;21.50;;;;;10.02;61.30;102399.59;5101325;27;47061;-65
2022/02/09 04:51:27;;;;;;;;;22.75;19.25;;;;;9.82;61.27;102388.06;5081269;27;45722;-65
2022/02/09 05:26:22;;;;;;;;;23.75;18.75;;;;;9.57;61.52;102390.81;5100649;27;45331;-65
2022/02/09 05:28:48;;;;;;;;;29.00;21.75;;;;;9.61;61.70;102405.03;5099503;27;45601;-65
2022/02/09 05:31:13;;;;;;;;;23.75;20.25;;;;;9.59;61.34;102407.69;5100564;27;46505;-65
2022/02/09 05:33:39;;;;;;;;;23.00;19.00;;;;;9.61;61.64;102413.91;5098896;27;48815;-65
2022/02/09 05:36:06;;;;;;;;;23.50;20.00;;;;;9.60;61.33;102413.91;5100603;27;45292;-65
2022/02/09 05:38:31;;;;;;;;;24.00;22.00;;;;;9.57;61.57;102400.56;5099969;27;45438;-65
2022/02/09 05:40:57;;;;;;;;;27.50;23.50;;;;;9.58;61.26;102402.38;5100506;27;45274;-65
2022/02/09 05:43:25;;;;;;;;;26.00;23.50;;;;;9.61;61.74;102410.34;5087182;27;45402;-65
2022/02/09 05:51:07;;;;;;;;;23.25;20.50;;;;;9.59;61.67;102399.69;5096758;27;45462;-65
2022/02/09 05:56:19;;;;;;;;;24.75;23.50;;;;;9.55;61.29;102394.38;5100385;27;45306;-65
2022/02/09 05:58:49;;;;;;;;;23.50;23.00;;;;;9.54;61.49;102393.47;5099453;27;45560;-65
2022/02/09 06:01:14;;;;;;;;;20.75;19.00;;;;;9.54;61.59;102404.16;5099700;27;46182;-65
2022/02/09 06:03:40;;;;;;;;;23.00;21.50;;;;;9.58;61.42;102410.34;5100143;27;45461;-65
2022/02/09 06:06:05;;;;;;;;;29.50;24.25;;;;;9.53;61.37;102409.47;5102420;27;45387;-65
2022/02/09 06:08:31;;;;;;;;;22.25;21.75;;;;;9.55;61.21;102415.69;5102173;27;45562;-65
2022/02/09 06:22:08;;;;;;;;;26.50;22.75;;;;;9.51;61.50;102411.28;5102909;27;45424;-65
2022/02/09 06:24:34;;;;;;;;;22.50;21.25;;;;;9.46;61.51;102409.47;5101400;27;45300;-65
2022/02/09 06:26:59;;;;;;;;;26.00;21.75;;;;;9.46;61.57;102413.94;5102656;27;46661;-65
2022/02/09 06:29:25;;;;;;;;;26.25;22.25;;;;;9.50;61.56;102420.13;5102920;27;45363;-65
2022/02/09 06:31:51;;;;;;;;;21.50;20.50;;;;;9.48;61.26;102424.59;5098626;27;45532;-65
2022/02/09 06:34:19;;;;;;;;;29.50;26.75;;;;;9.48;61.68;102416.59;5111247;27;45377;-65
2022/02/09 06:36:52;;;;;;;;;26.25;23.50;;;;;9.47;61.79;102413.03;5111374;27;45409;-65
2022/02/09 06:39:19;;;;;;;;;25.00;22.25;;;;;9.46;61.56;102414.81;5102893;27;45418;-65
2022/02/09 06:41:45;;;;;;;;;33.00;25.50;;;;;9.44;61.54;102405.06;5100594;27;47030;-64
2022/02/09 06:44:11;;;;;;;;;34.50;27.25;;;;;9.42;61.45;102410.38;5097694;27;45607;-65
2022/02/09 06:46:38;;;;;;;;;22.75;22.25;;;;;9.38;61.15;102405.94;5102201;27;45429;-65
2022/02/09 06:49:07;;;;;;;;;30.50;26.00;;;;;9.42;61.42;102415.72;5102192;27;45569;-65
2022/02/09 06:51:37;;;;;;;;;28.25;24.75;;;;;9.41;61.78;102416.59;5102400;27;47133;-65
2022/02/09 06:54:12;;;;;;;;;25.00;23.00;;;;;9.40;61.62;102412.13;5102862;27;45606;-65
2022/02/09 06:59:48;;;;;;;;;28.75;26.25;;;;;9.35;61.27;102407.72;5099359;27;45420;-65
2022/02/09 07:01:56;;;;;;;;;21.00;20.75;;;;;9.38;61.91;102413.94;5094869;27;45352;-65
2022/02/09 07:04:21;;;;;;;;;25.25;24.00;;;;;9.36;61.30;102409.50;5102748;27;45357;-65
2022/02/09 07:06:46;;;;;;;;;36.25;30.75;;;;;9.35;61.89;102415.72;5101830;27;45299;-65
2022/02/09 07:09:12;;;;;;;;;25.25;25.00;;;;;9.36;61.41;102414.84;5102432;27;45232;-65
2022/02/09 07:11:37;;;;;;;;;26.25;23.00;;;;;9.32;61.77;102415.69;5101843;27;45335;-65
2022/02/09 07:14:03;;;;;;;;;28.00;27.00;;;;;9.35;61.50;102423.72;5097121;27;45492;-65
2022/02/09 07:16:29;;;;;;;;;29.25;27.00;;;;;9.33;61.30;102414.81;5096300;27;45349;-65
2022/02/09 07:18:55;;;;;;;;;28.50;27.25;;;;;9.34;61.66;102413.91;5100252;27;45338;-65
2022/02/09 07:21:25;;;;;;;;;30.50;25.50;;;;;9.31;61.46;102421.94;5103356;27;46193;-65
2022/02/09 07:23:53;;;;;;;;;25.50;24.00;;;;;9.31;61.55;102429.94;5107877;27;46897;-65
2022/02/09 07:26:26;;;;;;;;;27.25;25.00;;;;;9.31;61.57;102428.16;5101911;27;45361;-65
2022/02/09 07:28:52;;;;;;;;;24.00;22.50;;;;;9.30;61.99;102433.47;5102868;27;45215;-66
2022/02/09 07:31:18;;;;;;;;;29.75;22.75;;;;;9.18;61.37;102413.06;5101738;27;46575;-66
2022/02/09 07:33:45;;;;;;;;;26.75;24.50;;;;;9.30;61.87;102441.47;5100403;27;45244;-66
2022/02/09 07:36:13;;;;;;;;;20.75;18.50;;;;;9.28;61.95;102436.16;5100175;27;46177;-66
2022/02/09 07:38:40;;;;;;;;;36.50;31.75;;;;;9.24;61.44;102421.06;5093883;27;45414;-66
2022/02/09 07:41:05;;;;;;;;;30.75;22.75;;;;;9.26;61.83;102422.81;5099396;27;45417;-66
2022/02/09 07:51:15;;;;;;;;;32.00;30.75;;;;;9.20;62.01;102414.81;5098911;27;45502;-65
2022/02/09 07:53:58;;;;;;;;;35.25;29.50;;;;;9.25;61.60;102420.16;5097788;27;45401;-65
2022/02/09 07:56:25;;;;;;;;;39.75;35.00;;;;;9.21;61.54;102418.38;5100946;27;45487;-65
2022/02/09 07:58:50;;;;;;;;;30.50;27.50;;;;;9.22;61.95;102415.72;5099503;27;45478;-65
2022/02/09 08:01:16;;;;;;;;;36.75;28.25;;;;;9.21;61.83;102419.25;5094090;27;46873;-65
2022/02/09 08:03:41;;;;;;;;;32.50;30.00;;;;;9.23;62.11;102421.94;5101112;27;45342;-65
2022/02/09 08:06:08;;;;;;;;;37.25;33.25;;;;;9.24;62.11;102415.72;5097339;27;45242;-65
2022/02/09 08:08:34;;;;;;;;;35.25;33.00;;;;;9.23;62.16;102413.94;5097527;27;45349;-65
2022/02/09 08:11:18;;;;;;;;;30.75;29.50;;;;;9.21;61.49;102407.72;5100643;27;46146;-65
2022/02/09 08:23:33;;;;;;;;;31.75;28.50;;;;;9.19;62.20;102409.50;5081294;27;46010;-65
2022/02/09 08:30:08;;;;;;;;;36.00;32.50;;;;;9.17;62.29;102401.50;5093637;27;45463;-65
2022/02/09 08:32:39;;;;;;;;;39.25;36.50;;;;;9.18;62.18;102399.72;5092896;27;45424;-65
2022/02/09 08:35:06;;;;;;;;;35.75;35.25;;;;;9.16;62.07;102397.06;5092399;27;45662;-65
2022/02/09 08:37:31;;;;;;;;;39.25;35.25;;;;;9.16;62.41;102394.41;5091762;27;45423;-65
2022/02/09 08:39:57;;;;;;;;;46.50;36.25;;;;;9.18;61.97;102394.41;5101512;27;45733;-65
2022/02/09 08:42:24;;;;;;;;;39.75;34.75;;;;;9.19;62.51;102398.84;5096675;27;45904;-65
2022/02/09 08:44:49;;;;;;;;;39.50;35.75;;;;;9.18;62.44;102397.94;5096350;27;45350;-66
2022/02/09 08:47:15;;;;;;;;;35.25;32.50;;;;;9.18;62.45;102397.06;5098853;27;45463;-65
2022/02/09 08:49:40;;;;;;;;;39.00;35.75;;;;;9.16;62.58;102398.84;5085973;27;45595;-65
2022/02/09 08:52:06;;;;;;;;;35.25;31.00;;;;;9.18;62.07;102394.41;5099402;27;45449;-65
2022/02/09 08:54:32;;;;;;;;;41.00;37.75;;;;;9.19;62.22;102391.75;5097730;27;45365;-65
2022/02/09 08:56:58;;;;;;;;;39.50;34.00;;;;;9.19;62.44;102393.53;5091976;27;45597;-65
2022/02/09 08:59:27;;;;;;;;;42.25;37.75;;;;;9.21;62.05;102383.75;5090726;27;45478;-65
2022/02/09 09:02:06;;;;;;;;;37.50;34.25;;;;;9.13;62.09;102369.53;5115761;27;46980;-67
2022/02/09 09:04:45;;;;;;;;;38.00;35.00;;;;;9.19;62.33;102377.53;5098167;27;45579;-69
2022/02/09 09:07:16;;;;;;;;;43.00;38.75;;;;;9.23;62.40;102384.63;5097581;27;46110;-65
2022/02/09 10:03:54;;;;;;;;;27.25;24.25;;;;;9.74;61.15;102332.09;5092732;27;45375;-64
2022/02/09 10:34:04;;;;;;;;;27.00;25.00;;;;;10.13;60.59;102326.59;5099338;27;45341;-65
2022/02/09 10:36:42;;;;;;;;;25.50;24.50;;;;;10.26;60.64;102341.66;5092805;27;45473;-66
2022/02/09 10:39:13;;;;;;;;;28.00;26.75;;;;;10.23;59.92;102333.66;5096073;27;46983;-66
2022/02/09 10:41:59;;;;;;;;;34.75;30.75;;;;;10.35;60.26;102346.09;5095577;27;45494;-65
2022/02/09 10:44:26;;;;;;;;;31.50;29.50;;;;;10.36;60.62;102329.19;5095816;27;45373;-65
2022/02/09 10:46:56;;;;;;;;;31.50;29.50;;;;;10.43;60.10;102335.38;5089578;27;45395;-65
2022/02/09 10:49:27;;;;;;;;;40.25;36.25;;;;;10.47;60.17;102331.78;5085792;27;46672;-65
2022/02/09 10:52:05;;;;;;;;;39.00;36.00;;;;;10.51;60.54;102330.88;5098242;27;45656;-65
2022/02/09 10:54:32;;;;;;;;;37.25;34.00;;;;;10.55;60.31;102329.94;5092212;27;45485;-65
2022/02/09 10:57:00;;;;;;;;;37.75;34.50;;;;;10.55;59.51;102319.25;5099143;27;45581;-65
2022/02/09 10:59:27;;;;;;;;;42.25;37.00;;;;;10.63;60.42;102321.88;5097747;27;45735;-65
2022/02/09 11:01:55;;;;;;;;;38.00;31.75;;;;;10.67;59.88;102324.50;5095163;27;45379;-65
2022/02/09 11:04:21;;;;;;;;;37.00;33.25;;;;;10.69;59.94;102316.47;5092474;27;45512;-65
2022/02/09 11:06:48;;;;;;;;;30.50;28.50;;;;;10.64;59.86;102294.25;5094863;27;46931;-65
2022/02/09 11:09:16;;;;;;;;;38.75;34.00;;;;;10.78;59.74;102305.72;5093279;27;45999;-65
2022/02/09 11:11:42;;;;;;;;;43.50;35.75;;;;;10.81;59.92;102307.47;5097170;27;45814;-65
2022/02/09 11:14:20;;;;;;;;;36.25;33.25;;;;;10.86;59.80;102301.22;5101071;27;45288;-65
2022/02/09 11:16:52;;;;;;;;;39.25;35.75;;;;;10.85;59.96;102298.56;5101249;27;45787;-65
2022/02/09 11:19:19;;;;;;;;;35.00;33.25;;;;;10.90;59.39;102297.59;5099863;27;45441;-63
2022/02/09 11:21:50;;;;;;;;;41.75;36.00;;;;;10.96;59.52;102294.00;5098556;27;45408;-65
2022/02/09 11:24:20;;;;;;;;;36.00;33.25;;;;;11.00;59.58;102287.72;5099126;27;45545;-65
2022/02/09 11:27:13;;;;;;;;;39.00;34.75;;;;;11.03;59.44;102285.03;5085229;27;45677;-66
2022/02/09 11:30:01;;;;;;;;;34.75;33.75;;;;;11.06;59.35;102285.00;5101790;27;47227;-65
2022/02/09 11:32:43;;;;;;;;;31.00;28.50;;;;;11.11;59.16;102277.81;5100732;27;45785;-65
2022/02/09 11:40:41;;;;;;;;;34.50;31.00;;;;;11.22;58.49;102264.31;5109200;27;45547;-65
2022/02/09 11:43:20;;;;;;;;;34.00;33.00;;;;;11.29;58.97;102254.47;5098454;27;45715;-65
2022/02/09 11:46:16;;;;;;;;;37.50;34.00;;;;;11.32;58.69;102254.44;5098081;27;45523;-65
2022/02/09 11:52:05;;;;;;;;;30.25;27.25;;;;;11.39;58.11;102258.78;5100958;27;45453;-65
2022/02/09 12:00:37;;;;;;;;;27.75;22.75;;;;;11.50;57.43;102262.22;5103912;27;45408;-65
2022/02/09 12:09:41;;;;;;;;;24.25;21.00;;;;;11.64;57.76;102239.78;5082522;27;45377;-64
2022/02/09 12:12:12;;;;;;;;;27.25;25.50;;;;;11.68;57.52;102238.84;5098879;27;45360;-65
2022/02/09 12:14:58;;;;;;;;;25.50;23.75;;;;;11.70;57.46;102234.34;5091493;27;45335;-65
2022/02/09 12:20:20;;;;;;;;;27.25;25.50;;;;;11.79;56.91;102234.22;5086146;27;48090;-65
2022/02/09 12:23:05;;;;;;;;;27.25;22.50;;;;;11.84;57.06;102231.50;5100680;27;45436;-65
2022/02/09 12:25:40;;;;;;;;;26.00;23.75;;;;;11.87;56.87;102226.09;5089305;27;47571;-67
2022/02/09 12:28:05;;;;;;;;;20.50;19.50;;;;;11.90;56.63;102225.19;5091883;27;45698;-67
2022/02/09 12:30:31;;;;;;;;;22.75;19.75;;;;;11.92;56.69;102218.03;5093747;27;45928;-66
2022/02/09 12:32:56;;;;;;;;;23.75;20.25;;;;;11.95;56.66;102213.53;5095511;27;45792;-66
2022/02/09 12:35:21;;;;;;;;;24.25;23.25;;;;;11.97;56.45;102211.72;5096320;27;45957;-66
2022/02/09 12:37:47;;;;;;;;;22.25;21.50;;;;;11.94;56.59;102198.38;5091440;27;48140;-67
2022/02/09 12:40:17;;;;;;;;;22.25;19.00;;;;;12.01;56.22;102202.75;5093816;27;45900;-67
2022/02/09 12:42:45;;;;;;;;;19.50;17.25;;;;;12.03;56.03;102205.41;5089101;27;45570;-67
2022/02/09 12:45:16;;;;;;;;;21.00;17.75;;;;;12.09;55.66;102191.91;5093011;27;46224;-67
2022/02/09 12:47:48;;;;;;;;;21.00;18.75;;;;;12.10;55.73;102192.81;5088613;27;45487;-67
2022/02/09 12:50:34;;;;;;;;;20.00;20.00;;;;;12.15;55.78;102196.28;5084419;27;46067;-67
2022/02/09 12:53:02;;;;;;;;;25.00;23.75;;;;;12.17;55.56;102192.66;5107460;27;46433;-66
2022/02/09 12:55:30;;;;;;;;;18.50;17.25;;;;;12.14;55.37;102181.13;5089635;27;47059;-67
2022/02/09 12:58:01;;;;;;;;;20.00;17.75;;;;;12.23;55.25;102189.91;5093249;27;45860;-68
2022/02/09 13:00:33;;;;;;;;;21.75;20.00;;;;;12.27;55.24;102184.50;5094081;27;45472;-67
2022/02/09 13:03:03;;;;;;;;;21.25;19.75;;;;;12.24;55.15;102172.03;5083597;27;45974;-67
2022/02/09 13:05:29;;;;;;;;;24.50;20.50;;;;;12.32;55.05;102171.91;5095304;27;45477;-67
2022/02/09 13:08:03;;;;;;;;;24.75;22.75;;;;;12.33;55.30;102166.53;5095910;27;45963;-66
2022/02/09 13:10:33;;;;;;;;;24.75;22.50;;;;;12.37;55.06;102167.38;5091510;27;45840;-65
2022/02/09 13:13:08;;;;;;;;;26.75;24.00;;;;;12.40;55.18;102164.66;5087490;27;45508;-65
2022/02/09 13:15:43;;;;;;;;;24.50;23.00;;;;;12.42;55.10;102162.81;5082635;27;47111;-65
2022/02/09 13:22:18;;;;;;;;;27.00;24.75;;;;;12.48;55.17;102149.31;5087196;27;45452;-67
2022/02/09 14:11:53;;;;;;;;;21.25;20.50;;;;;13.02;54.58;102100.03;5080560;27;46094;-65
2022/02/09 14:57:49;;;;;;;;;17.75;17.25;;;;;13.41;53.55;102067.06;5090890;27;45718;-67
2022/02/09 15:00:20;;;;;;;;;19.75;15.75;;;;;13.41;53.59;102065.25;5101090;27;45781;-67
2022/02/09 15:08:13;;;;;;;;;21.25;19.75;;;;;13.45;53.45;102056.22;5093480;27;45673;-66
2022/02/09 15:10:50;;;;;;;;;17.00;17.00;;;;;13.49;53.06;102052.53;5096280;27;45499;-67
2022/02/09 15:16:03;;;;;;;;;19.25;16.50;;;;;13.52;52.77;102049.78;5097390;27;45499;-67
2022/02/09 15:21:47;;;;;;;;;16.50;16.00;;;;;13.53;52.69;102039.94;5100818;27;45486;-66
2022/02/09 15:24:08;;;;;;;;;15.50;15.00;;;;;13.54;52.95;102047.06;5092945;27;45475;-66
2022/02/09 15:26:34;;;;;;;;;13.25;13.25;;;;;13.56;52.65;102039.88;5101194;27;45393;-67
2022/02/09 15:29:00;;;;;;;;;20.50;17.00;;;;;13.57;52.63;102035.41;5097432;27;45352;-67
2022/02/09 15:31:37;;;;;;;;;16.00;16.00;;;;;13.61;52.82;102043.31;5109643;27;45826;-67
2022/02/09 15:34:13;;;;;;;;;17.00;16.50;;;;;13.61;52.65;102039.75;5097059;27;45331;-67
2022/02/09 15:39:14;;;;;;;;;17.25;15.75;;;;;13.61;52.68;102031.72;5087812;27;45601;-66
2022/02/09 15:42:01;;;;;;;;;16.50;16.50;;;;;13.62;52.71;102034.34;5092798;27;45447;-67
2022/02/09 16:16:50;;;;;;;;;14.50;12.00;;;;;13.76;53.08;102001.81;5096272;27;45448;-67
2022/02/09 16:22:00;;;;;;;;;18.75;17.50;;;;;13.77;52.87;101990.16;5089070;27;45703;-67
2022/02/09 16:24:31;;;;;;;;;14.25;13.50;;;;;13.78;52.87;101997.31;5100281;27;45356;-67
2022/02/09 16:36:14;;;;;;;;;15.75;15.75;;;;;13.80;52.81;101989.19;5100062;27;45813;-67
2022/02/09 16:38:10;;;;;;;;;17.25;15.50;;;;;13.78;52.69;101983.88;5098275;27;45698;-67
2022/02/09 16:48:33;;;;;;;;;20.50;18.75;;;;;13.76;52.89;101988.38;5097241;27;45519;-67
2022/02/09 16:51:00;;;;;;;;;14.50;13.75;;;;;13.76;52.84;101977.66;5090676;27;47406;-66
2022/02/09 16:53:46;;;;;;;;;16.25;16.25;;;;;13.76;52.64;101984.84;5093601;27;45803;-67
2022/02/09 17:18:44;;;;;;;;;14.75;14.75;;;;;13.70;52.92;101964.41;5094230;27;45363;-67
2022/02/09 17:21:13;;;;;;;;;16.25;16.25;;;;;13.69;53.71;101965.31;5088298;27;45406;-67
2022/02/09 17:23:39;;;;;;;;;18.50;15.50;;;;;13.66;53.50;101960.91;5099104;27;46389;-67
2022/02/09 17:26:05;;;;;;;;;15.25;14.00;;;;;13.66;53.74;101966.28;5098510;27;45388;-67
2022/02/09 17:28:31;;;;;;;;;17.00;15.00;;;;;13.65;53.76;101963.66;5092803;27;45464;-67
2022/02/09 17:38:53;;;;;;;;;14.25;13.75;;;;;13.58;54.02;101960.25;5089160;27;45631;-67
2022/02/09 18:00:14;;;;;;;;;17.25;17.00;;;;;13.28;54.46;101948.44;5088697;27;45448;-67
2022/02/09 18:02:40;;;;;;;;;19.00;17.00;;;;;13.36;54.35;101980.47;5095797;27;46370;-67
2022/02/09 18:05:13;;;;;;;;;14.75;12.25;;;;;13.30;54.51;101966.25;5098018;27;46910;-67
2022/02/09 18:07:40;;;;;;;;;14.75;14.50;;;;;13.29;54.56;101972.53;5098147;27;45490;-67
2022/02/09 18:10:17;;;;;;;;;16.00;15.00;;;;;13.24;54.63;101966.41;5093982;27;45651;-67
2022/02/09 18:31:22;;;;;;;;;18.75;18.00;;;;;13.16;54.89;101974.63;5098409;27;45283;-67
2022/02/09 18:39:42;;;;;;;;;19.25;17.75;;;;;13.06;55.12;101969.50;5091208;27;45661;-67
2022/02/09 18:47:03;;;;;;;;;22.00;18.25;;;;;13.00;54.98;101953.56;5098019;27;45361;-67
2022/02/09 18:58:22;;;;;;;;;24.00;22.75;;;;;12.93;55.42;101967.13;5095550;27;45519;-67
2022/02/09 19:03:30;;;;;;;;;22.50;21.50;;;;;12.85;55.28;101955.69;5096866;27;45491;-67
2022/02/09 19:06:01;;;;;;;;;22.00;19.75;;;;;12.84;55.45;101948.56;5095397;27;45618;-67
2022/02/09 19:08:50;;;;;;;;;20.00;18.00;;;;;12.81;55.53;101953.09;5090078;27;46710;-67
2022/02/09 19:27:44;;;;;;;;;35.75;33.25;;;;;12.60;55.83;101918.72;5078496;27;45528;-66
2022/02/09 19:30:25;;;;;;;;;30.00;27.25;;;;;12.61;55.85;101916.91;5098375;27;45506;-65
2022/02/09 19:41:43;;;;;;;;;29.25;26.50;;;;;12.56;56.34;101918.81;5091197;27;45726;-66
2022/02/09 19:51:50;;;;;;;;;34.00;30.25;;;;;12.46;56.35;101917.25;5093260;27;45568;-67
2022/02/09 19:56:51;;;;;;;;;35.25;30.50;;;;;12.41;56.62;101922.69;5097479;27;45423;-66
2022/02/09 19:59:20;;;;;;;;;33.50;30.00;;;;;12.30;56.43;101900.66;5093176;27;45819;-65
2022/02/09 20:01:46;;;;;;;;;36.00;33.50;;;;;12.36;56.39;101909.44;5097768;27;46821;-66
2022/02/09 20:04:14;;;;;;;;;35.50;29.50;;;;;12.34;56.62;101916.59;5097107;27;45342;-65
2022/02/09 20:06:40;;;;;;;;;32.00;29.00;;;;;12.31;56.75;101911.34;5095179;27;45684;-66
2022/02/09 20:09:06;;;;;;;;;33.00;32.25;;;;;12.29;56.74;101904.22;5093762;27;45836;-66
2022/02/09 20:11:31;;;;;;;;;40.50;34.75;;;;;12.30;56.75;101908.69;5094795;27;45988;-66
2022/02/09 20:13:57;;;;;;;;;32.00;32.00;;;;;12.28;56.56;101910.50;5093513;27;45386;-66
2022/02/09 20:16:24;;;;;;;;;39.00;34.00;;;;;12.21;56.83;101893.66;5097755;27;45626;-67
2022/02/09 20:18:51;;;;;;;;;37.75;34.75;;;;;12.26;56.88;101898.94;5096219;27;45469;-67
2022/02/09 20:21:17;;;;;;;;;35.25;32.25;;;;;12.23;57.00;101902.56;5095684;27;46017;-66
2022/02/09 20:23:42;;;;;;;;;40.75;33.50;;;;;12.16;57.03;101896.47;5096922;27;45478;-68
2022/02/09 20:26:10;;;;;;;;;34.75;33.50;;;;;12.19;56.94;101892.84;5093308;27;46621;-67
2022/02/09 20:28:39;;;;;;;;;43.75;36.00;;;;;12.16;56.96;101891.13;5097492;27;45537;-67
2022/02/09 20:31:09;;;;;;;;;46.75;38.00;;;;;12.17;56.94;101902.69;5097015;27;46164;-68
2022/02/09 20:33:43;;;;;;;;;54.50;41.75;;;;;12.14;57.16;101895.59;5094403;27;45366;-67
2022/02/09 20:36:11;;;;;;;;;54.75;45.00;;;;;12.14;56.97;101898.28;5097119;27;45506;-67
2022/02/09 20:38:38;;;;;;;;;56.00;43.50;;;;;12.10;56.97;101893.91;5092484;27;45620;-68
2022/02/09 20:41:05;;;;;;;;;54.00;44.00;;;;;12.10;57.18;101901.94;5088629;27;46138;-67
2022/02/09 20:43:38;;;;;;;;;57.00;45.75;;;;;12.04;57.09;101888.66;5097173;27;45447;-69
2022/02/09 20:46:05;;;;;;;;;59.50;46.75;;;;;12.01;57.28;101886.94;5093494;27;45741;-67
2022/02/09 20:48:31;;;;;;;;;59.75;47.75;;;;;11.97;57.02;101881.69;5084749;27;45774;-67
2022/02/09 20:50:58;;;;;;;;;58.50;47.50;;;;;12.03;57.44;101890.47;5098656;27;47699;-66
2022/02/09 20:53:25;;;;;;;;;60.25;47.75;;;;;11.98;57.48;101886.13;5093653;27;45492;-66
2022/02/09 20:55:51;;;;;;;;;62.25;49.25;;;;;11.99;57.28;101896.78;5091129;27;46957;-66
2022/02/09 20:58:18;;;;;;;;;57.25;45.25;;;;;11.98;57.23;101900.38;5095171;27;45906;-65
2022/02/09 21:00:52;;;;;;;;;57.50;47.25;;;;;11.97;57.49;101898.63;5094308;27;45859;-64
2022/02/09 21:16:42;;;;;;;;;55.25;43.50;;;;;11.85;57.70;101901.50;5096327;27;46014;-67
2022/02/09 21:19:28;;;;;;;;;52.25;42.00;;;;;11.82;58.01;101891.72;5089849;27;45787;-66
2022/02/09 21:22:31;;;;;;;;;50.50;43.00;;;;;11.85;58.07;101893.47;5092286;27;46574;-66
2022/02/09 21:28:09;;;;;;;;;57.50;46.25;;;;;11.78;58.06;101894.53;5089267;27;45519;-67
2022/02/09 21:56:47;;;;;;;;;49.75;40.00;;;;;11.67;58.23;101908.06;5096327;27;45364;-65
2022/02/09 22:20:45;;;;;;;;;45.50;36.75;;;;;11.60;59.10;101901.09;5099859;27;45501;-65
2022/02/09 22:28:33;;;;;;;;;35.75;32.00;;;;;11.58;59.16;101884.19;5099839;27;45329;-65
2022/02/09 22:54:46;;;;;;;;;38.50;34.00;;;;;11.62;59.42;101854.66;5103285;27;45333;-66
2022/02/09 22:57:12;;;;;;;;;38.50;34.00;;;;;11.65;59.68;101867.97;5099464;27;45872;-66
2022/02/09 22:59:47;;;;;;;;;38.00;35.00;;;;;11.68;59.04;101853.69;5099261;27;45383;-65
2022/02/09 23:02:23;;;;;;;;;39.00;35.25;;;;;11.70;59.32;101857.22;5102268;27;45380;-65
2022/02/09 23:07:59;;;;;;;;;38.50;33.50;;;;;11.76;59.27;101857.09;5106281;27;45722;-65
2022/02/09 23:10:44;;;;;;;;;33.75;31.75;;;;;11.78;59.54;101849.03;5096083;27;45588;-66
2022/02/09 23:13:19;;;;;;;;;32.25;31.75;;;;;11.78;59.14;101857.06;5103119;27;45460;-65
